Main page
METAR-TAF:

METAR-TAF

Airports :

Léopold Sédar Senghor International Airport

Dakar, Senegal

latitude: 14-44N, longitude: 017-30W, elevation: 27 m

Current weather observation

The report was made 33 minutes ago, at 11:00 UTC
Wind 6 kt from the Northwest
Temperature 29°C
Humidity 66%
Pressure 1016 hPa
Visibility 10 km or more
Scattered clouds at a height of 1500 ft

METAR: GOOY 151100Z 32006KT 9999 SCT015 29/22 Q1016

Time: 11:33 (11:33 UTC)

Forecast

The report was made 6 hours and 3 minutes ago, at 05:30 UTC
Forecast valid from 15 at 06 UTC to 16 at 12 UTC
Wind 8 kt from the Northwest
Visibility 10 km or more
Scattered clouds at a height of 1300 ft

TAF: GOOY 150530Z 1506/1612 32008KT 9999 SCT013

Weather observations and forecasts of more than 4000 airports (METAR and TAF reports).

The available stations are represented by yellow and red dots on the map.

Hover mouse over dot to see the name of the station.

Then click to see weather observations and forecasts.

To change the map : click on the green buttons with a black cross to zoom in, on the green button with a dash to zoom out, or on the green arrows for adjacent maps.


METAR-TAF: